Time;durP1;ratioP1;P1;durP2;ratioP2;P2;SDS_P1;SDS_P2;PMS_P1;PMS_P2;Temp;Humidity;BMP_temperature;BMP_pressure;BME280_temperature;BME280_humidity;BME280_pressure;Samples;Min_cycle;Max_cycle;Signal;HPM_P1;HPM_P2
2023/08/22 00:07:39;;;;;;;5.35;2.78;;;;;;;19.05;65.52;100984.94;20959207;28;20368;-83
2023/08/22 00:17:42;;;;;;;6.65;2.97;;;;;;;19.40;63.62;100979.22;20988922;28;20219;-84
2023/08/22 00:27:44;;;;;;;5.93;3.45;;;;;;;18.72;66.24;100985.31;20970012;28;20195;-82
2023/08/22 00:37:47;;;;;;;7.43;3.00;;;;;;;18.69;67.36;100971.81;20968010;28;20234;-84
2023/08/22 00:47:49;;;;;;;5.97;3.53;;;;;;;18.84;66.55;100948.97;20975880;28;20195;-84
2023/08/22 00:57:52;;;;;;;7.28;3.13;;;;;;;18.18;68.65;100946.06;20975876;28;20321;-84
2023/08/22 01:07:57;;;;;;;3.58;2.80;;;;;;;18.15;68.36;100935.38;20961994;28;20194;-84
2023/08/22 01:18:03;;;;;;;7.97;2.83;;;;;;;18.61;65.53;100928.88;20976270;28;20496;-84
2023/08/22 01:28:11;;;;;;;7.88;2.67;;;;;;;18.10;67.63;100933.63;20989126;28;20586;-83
2023/08/22 01:38:13;;;;;;;7.10;2.92;;;;;;;18.64;65.43;100930.16;20961341;28;20219;-83
2023/08/22 01:48:17;;;;;;;5.60;3.08;;;;;;;18.64;65.36;100915.91;20981893;28;20201;-83
2023/08/22 01:58:19;;;;;;;4.75;2.58;;;;;;;18.58;65.74;100906.78;20959771;28;20280;-84
2023/08/22 02:08:22;;;;;;;4.88;2.92;;;;;;;18.70;65.59;100905.06;20960295;28;20290;-83
2023/08/22 02:18:24;;;;;;;7.40;2.95;;;;;;;18.61;65.51;100920.31;20973995;28;20237;-84
2023/08/22 02:28:27;;;;;;;7.13;3.13;;;;;;;18.13;67.62;100912.13;20988754;28;20205;-83
2023/08/22 02:38:28;;;;;;;6.05;3.15;;;;;;;18.30;67.12;100917.47;20965487;28;20221;-83
2023/08/22 02:48:31;;;;;;;3.85;2.78;;;;;;;18.39;67.26;100906.72;20982304;28;20218;-82
2023/08/22 02:58:33;;;;;;;4.90;2.97;;;;;;;18.49;66.54;100906.16;20977790;28;20237;-82
2023/08/22 03:08:36;;;;;;;4.75;2.80;;;;;;;18.18;67.30;100907.00;20983172;28;20201;-82
2023/08/22 03:18:38;;;;;;;5.35;2.97;;;;;;;18.17;67.43;100913.06;20974775;28;20230;-82
2023/08/22 03:28:41;;;;;;;4.93;2.92;;;;;;;18.24;67.58;100916.91;20976706;28;20219;-82
2023/08/22 03:38:43;;;;;;;4.22;2.40;;;;;;;18.05;67.54;100921.69;20972782;28;20229;-81
2023/08/22 03:48:46;;;;;;;6.93;3.10;;;;;;;18.00;67.82;100905.69;21001330;28;20556;-82
2023/08/22 03:58:47;;;;;;;8.45;3.38;;;;;;;17.62;69.39;100900.53;20995217;28;20262;-81
2023/08/22 04:08:50;;;;;;;7.07;3.67;;;;;;;18.08;67.08;100903.84;20989483;28;20207;-84
2023/08/22 04:18:52;;;;;;;7.65;3.50;;;;;;;18.13;66.74;100890.19;20992876;28;20581;-81
2023/08/22 04:28:55;;;;;;;3.28;2.88;;;;;;;17.92;67.07;100881.88;20969050;28;20191;-82
2023/08/22 04:38:57;;;;;;;7.10;3.53;;;;;;;17.96;67.13;100892.53;20983661;28;20302;-82
2023/08/22 04:49:00;;;;;;;8.93;3.80;;;;;;;17.98;67.49;100887.31;20972745;28;20309;-82
2023/08/22 04:59:02;;;;;;;5.68;3.78;;;;;;;17.95;67.75;100902.28;21004296;28;20191;-82
2023/08/22 05:09:15;;;;;;;5.30;4.07;;;;;;;18.17;66.80;100904.53;20966954;28;20199;-81
2023/08/22 05:19:17;;;;;;;7.95;3.40;;;;;;;18.28;66.26;100894.22;20967250;28;20218;-82
2023/08/22 05:29:20;;;;;;;6.65;3.50;;;;;;;18.10;67.54;100898.63;20966880;28;20486;-81
2023/08/22 05:39:22;;;;;;;6.72;3.20;;;;;;;18.04;67.15;100900.09;20968913;28;20218;-81
2023/08/22 05:49:25;;;;;;;9.38;4.20;;;;;;;18.24;66.90;100905.53;20955523;28;20583;-81
2023/08/22 05:59:27;;;;;;;5.30;3.20;;;;;;;18.35;66.37;100907.81;20957123;28;20287;-80
2023/08/22 06:09:30;;;;;;;8.02;3.72;;;;;;;18.95;65.22;100912.19;20977643;28;20386;-80
2023/08/22 06:19:31;;;;;;;8.10;4.82;;;;;;;18.71;66.37;100907.50;20990558;28;20249;-82
2023/08/22 06:29:35;;;;;;;8.32;4.68;;;;;;;19.19;65.46;100911.91;20970256;28;20220;-81
2023/08/22 06:39:38;;;;;;;9.25;5.10;;;;;;;18.72;68.04;100908.34;20935655;28;20191;-81
2023/08/22 06:49:41;;;;;;;13.35;5.65;;;;;;;19.64;63.58;100910.41;20975302;28;20558;-81
2023/08/22 06:59:42;;;;;;;10.20;5.68;;;;;;;19.91;60.22;100923.63;20941490;28;20281;-81
2023/08/22 07:09:48;;;;;;;11.43;5.70;;;;;;;20.31;60.35;100919.47;20978702;28;20226;-81
2023/08/22 07:19:50;;;;;;;10.48;6.28;;;;;;;20.64;59.34;100924.56;20986111;28;20215;-82
2023/08/22 07:29:53;;;;;;;12.35;4.47;;;;;;;21.51;58.15;100917.69;20988569;28;20522;-82
2023/08/22 07:39:56;;;;;;;9.13;4.43;;;;;;;21.28;59.36;100926.38;20966654;28;20200;-82
2023/08/22 07:49:59;;;;;;;10.57;4.78;;;;;;;21.37;59.06;100923.22;20977218;28;20234;-81
2023/08/22 08:00:01;;;;;;;9.20;5.63;;;;;;;21.79;56.78;100922.97;21014375;28;20293;-78
2023/08/22 08:10:05;;;;;;;6.32;3.58;;;;;;;21.72;52.28;100945.75;20995826;28;20223;-80
2023/08/22 08:20:10;;;;;;;8.75;4.00;;;;;;;22.40;51.31;100947.38;20976761;28;20219;-80
2023/08/22 08:30:14;;;;;;;6.63;2.78;;;;;;;22.85;48.69;100935.47;20982892;28;20519;-82
2023/08/22 08:40:16;;;;;;;10.05;3.70;;;;;;;22.93;49.21;100950.69;20969699;28;20234;-83
2023/08/22 08:50:19;;;;;;;7.63;3.78;;;;;;;23.16;49.42;100942.66;20998794;28;20215;-83
2023/08/22 09:00:20;;;;;;;8.55;3.92;;;;;;;23.15;48.74;100945.94;20957555;28;20278;-82
2023/08/22 09:10:38;;;;;;;7.95;3.13;;;;;;;22.91;46.91;100949.44;20997425;28;20226;-83
2023/08/22 09:20:45;;;;;;;5.00;2.40;;;;;;;23.55;44.70;100947.81;21086307;28;20295;-82
2023/08/22 09:30:49;;;;;;;4.68;2.70;;;;;;;23.71;47.85;100956.09;21071276;28;20615;-81
2023/08/22 09:40:51;;;;;;;9.10;3.67;;;;;;;23.85;43.40;100954.09;20929680;28;20203;-79
2023/08/22 09:50:58;;;;;;;5.75;4.07;;;;;;;23.95;42.93;100935.22;20936524;28;20553;-80
2023/08/22 10:01:00;;;;;;;6.03;3.90;;;;;;;23.34;42.92;100933.34;20985612;28;20480;-80
2023/08/22 10:11:05;;;;;;;8.88;3.40;;;;;;;24.02;41.26;100923.78;20990366;28;20217;-82
2023/08/22 10:21:07;;;;;;;7.50;3.03;;;;;;;24.72;40.29;100933.72;20979288;28;20215;-80
2023/08/22 10:31:11;;;;;;;5.70;3.03;;;;;;;24.65;39.75;100916.47;20966798;28;20227;-79
2023/08/22 10:41:14;;;;;;;9.60;3.10;;;;;;;24.23;40.33;100920.13;20966072;28;20610;-79
2023/08/22 10:51:17;;;;;;;7.03;3.03;;;;;;;24.71;40.62;100908.22;20959441;28;20238;-80
2023/08/22 11:01:19;;;;;;;7.63;3.03;;;;;;;24.96;38.71;100909.84;20977692;28;20218;-79
2023/08/22 11:11:22;;;;;;;7.22;2.10;;;;;;;25.39;36.35;100915.50;20959451;28;20231;-79
2023/08/22 11:21:26;;;;;;;7.28;2.78;;;;;;;24.09;39.47;100909.44;20948094;28;20270;-79
2023/08/22 11:31:29;;;;;;;5.20;2.90;;;;;;;24.52;40.29;100918.09;20961330;28;20539;-79
2023/08/22 11:41:31;;;;;;;9.32;2.85;;;;;;;24.64;40.63;100923.47;20957222;28;20195;-80
2023/08/22 11:51:34;;;;;;;5.63;3.15;;;;;;;24.86;38.75;100921.38;20956909;28;20238;-84
2023/08/22 12:01:35;;;;;;;9.65;4.15;;;;;;;25.01;39.09;100917.25;20966540;28;20208;-81
2023/08/22 12:11:39;;;;;;;7.47;3.60;;;;;;;24.75;39.77;100918.53;20964344;28;20216;-80
2023/08/22 12:21:40;;;;;;;10.63;5.35;;;;;;;24.57;40.10;100927.13;20938481;28;20532;-79
2023/08/22 12:31:44;;;;;;;13.65;5.60;;;;;;;24.67;40.22;100930.47;20954390;28;20615;-80
2023/08/22 12:41:46;;;;;;;9.68;5.13;;;;;;;24.80;40.07;100932.50;20941069;28;20199;-79
2023/08/22 12:51:49;;;;;;;8.82;2.70;;;;;;;26.21;38.51;100920.88;20803020;28;20223;-79
2023/08/22 13:01:51;;;;;;;6.53;3.03;;;;;;;25.09;39.29;100926.69;20779387;28;20554;-79
2023/08/22 13:11:54;;;;;;;8.93;3.88;;;;;;;24.52;39.12;100923.84;20776263;28;20954;-79
2023/08/22 13:21:56;;;;;;;5.68;2.72;;;;;;;25.26;39.00;100909.38;20779908;28;21048;-79
2023/08/22 13:31:59;;;;;;;6.50;2.55;;;;;;;24.68;40.88;100915.63;20771014;28;20645;-79
2023/08/22 13:42:00;;;;;;;4.03;2.88;;;;;;;24.74;39.48;100902.47;20790260;28;20224;-79
2023/08/22 13:52:04;;;;;;;5.82;2.80;;;;;;;24.32;40.88;100899.59;20781560;28;20217;-79
2023/08/22 14:02:06;;;;;;;13.32;2.40;;;;;;;25.22;39.40;100902.00;20782472;28;20192;-79
2023/08/22 14:12:09;;;;;;;10.27;2.38;;;;;;;24.77;39.37;100904.53;20794983;28;20219;-79
2023/08/22 14:22:13;;;;;;;6.50;1.92;;;;;;;24.50;41.57;100911.94;20780238;28;20863;-78
2023/08/22 14:32:16;;;;;;;5.47;2.22;;;;;;;24.26;40.93;100919.31;20779837;28;20228;-79
2023/08/22 14:42:18;;;;;;;5.25;1.80;;;;;;;24.34;41.72;100911.50;20801313;28;20320;-80
2023/08/22 14:52:21;;;;;;;11.32;2.60;;;;;;;23.62;41.90;100915.44;20812985;28;20228;-80
2023/08/22 15:02:23;;;;;;;4.25;2.25;;;;;;;24.16;40.91;100918.06;20795246;28;20193;-79
2023/08/22 15:12:26;;;;;;;6.10;2.75;;;;;;;24.37;41.81;100900.00;20809417;28;20679;-79
2023/08/22 15:22:28;;;;;;;6.50;2.90;;;;;;;23.47;43.49;100898.09;20794467;28;20692;-79
2023/08/22 15:32:31;;;;;;;6.95;2.50;;;;;;;23.90;44.04;100899.06;20782370;28;20224;-78
2023/08/22 15:42:34;;;;;;;9.85;2.60;;;;;;;24.40;42.50;100901.25;20788869;28;20200;-81
2023/08/22 15:52:37;;;;;;;6.25;2.58;;;;;;;24.23;42.92;100906.56;20772339;28;20240;-79
2023/08/22 16:02:39;;;;;;;7.18;2.97;;;;;;;23.32;44.56;100907.06;20752742;28;20197;-79
2023/08/22 16:12:42;;;;;;;11.27;3.67;;;;;;;24.65;43.30;100898.38;20726223;28;20236;-79
2023/08/22 16:22:44;;;;;;;12.73;3.72;;;;;;;24.38;43.25;100880.69;20743076;28;20221;-78
2023/08/22 16:32:47;;;;;;;4.53;2.45;;;;;;;24.23;43.16;100886.44;20722258;28;20308;-79
2023/08/22 16:42:49;;;;;;;3.55;2.38;;;;;;;24.02;43.38;100886.41;20735868;28;20261;-79
2023/08/22 16:52:53;;;;;;;3.85;2.08;;;;;;;24.03;42.66;100876.50;20755740;28;20637;-80
2023/08/22 17:02:55;;;;;;;6.43;3.20;;;;;;;23.92;42.30;100875.69;20782086;28;20292;-79
2023/08/22 17:12:59;;;;;;;6.32;4.00;;;;;;;23.74;44.00;100880.56;20778558;28;20227;-78
2023/08/22 17:23:00;;;;;;;3.63;2.88;;;;;;;23.82;43.89;100876.47;20772335;28;20211;-76
2023/08/22 17:33:04;;;;;;;5.65;3.08;;;;;;;23.46;43.44;100872.66;20757501;28;20655;-79
2023/08/22 17:43:06;;;;;;;4.45;3.05;;;;;;;23.34;44.88;100870.16;20767839;28;20192;-80
2023/08/22 17:53:09;;;;;;;5.50;2.55;;;;;;;23.28;44.69;100875.44;20755982;28;20227;-79
2023/08/22 18:03:11;;;;;;;3.95;2.40;;;;;;;23.24;43.06;100876.66;20767269;28;20205;-79
2023/08/22 18:13:14;;;;;;;3.33;2.00;;;;;;;22.74;44.39;100885.75;20768000;28;20221;-78
2023/08/22 18:23:17;;;;;;;3.97;2.33;;;;;;;22.93;44.76;100890.41;20749230;28;20230;-78
2023/08/22 18:33:20;;;;;;;5.63;2.20;;;;;;;21.30;49.53;100898.19;20767858;28;20231;-81
2023/08/22 18:43:22;;;;;;;2.85;1.70;;;;;;;22.04;46.98;100906.88;20760320;28;20787;-79
2023/08/22 18:53:25;;;;;;;5.30;1.77;;;;;;;22.22;46.58;100917.66;20728718;28;20225;-80
2023/08/22 19:03:27;;;;;;;9.77;2.30;;;;;;;21.54;47.76;100919.78;20690956;28;20218;-80
2023/08/22 19:13:30;;;;;;;6.78;2.42;;;;;;;21.35;49.51;100935.06;20699311;28;20316;-81
2023/08/22 19:23:32;;;;;;;6.50;3.08;;;;;;;21.09;50.36;100949.38;20745265;28;20225;-81
2023/08/22 19:33:41;;;;;;;6.18;3.65;;;;;;;21.16;51.37;100945.81;20741243;28;20218;-81
2023/08/22 19:43:43;;;;;;;6.97;3.67;;;;;;;20.70;53.16;100958.16;20750604;28;20853;-81
2023/08/22 19:53:46;;;;;;;6.53;3.70;;;;;;;20.47;53.43;100959.38;20783488;28;20632;-81
2023/08/22 20:03:48;;;;;;;6.85;3.58;;;;;;;20.29;54.65;100959.88;20844826;28;20623;-82
2023/08/22 20:13:51;;;;;;;9.10;4.10;;;;;;;20.54;54.34;100957.44;20842183;28;20284;-80
2023/08/22 20:23:53;;;;;;;5.13;3.95;;;;;;;19.85;57.80;100956.56;20825426;28;20642;-80
2023/08/22 20:33:56;;;;;;;7.03;4.80;;;;;;;19.66;57.63;100971.66;20829508;28;20315;-81
2023/08/22 20:43:58;;;;;;;7.55;4.65;;;;;;;19.70;58.00;100960.31;20816734;28;20287;-81
2023/08/22 20:54:01;;;;;;;9.85;5.03;;;;;;;19.23;60.08;100957.63;20820410;28;20224;-81
2023/08/22 21:04:04;;;;;;;10.75;5.15;;;;;;;19.01;60.18;100967.72;20821211;28;20209;-81
2023/08/22 21:14:07;;;;;;;7.68;4.97;;;;;;;19.40;59.00;100950.69;20826689;28;20266;-81
2023/08/22 21:24:09;;;;;;;7.07;4.70;;;;;;;19.20;58.90;100959.22;20812044;28;20248;-80
2023/08/22 21:34:12;;;;;;;7.30;4.13;;;;;;;19.22;58.70;100956.81;20814714;28;20220;-81
2023/08/22 21:44:14;;;;;;;6.88;4.07;;;;;;;18.66;60.86;100961.16;20816793;28;20200;-81
2023/08/22 21:54:17;;;;;;;5.35;3.40;;;;;;;18.48;61.07;100966.38;20817911;28;20228;-81
2023/08/22 22:04:19;;;;;;;6.15;3.67;;;;;;;18.39;61.90;100962.88;20820387;28;20295;-81
2023/08/22 22:14:22;;;;;;;4.75;3.35;;;;;;;18.84;59.73;100976.66;20819291;28;20705;-80
2023/08/22 22:24:23;;;;;;;7.40;3.55;;;;;;;18.66;59.84;100981.13;20812308;28;20228;-81
2023/08/22 22:34:26;;;;;;;6.05;3.13;;;;;;;18.54;60.62;100987.72;20821829;28;20311;-81
2023/08/22 22:44:28;;;;;;;5.22;3.20;;;;;;;18.26;60.71;100979.22;20815539;28;20613;-81
2023/08/22 22:54:31;;;;;;;6.18;3.10;;;;;;;17.83;62.65;100978.00;20822962;28;20715;-82
2023/08/22 23:04:33;;;;;;;4.70;3.42;;;;;;;17.36;64.14;100971.31;20835117;28;20224;-81
2023/08/22 23:14:36;;;;;;;4.55;3.42;;;;;;;18.00;61.82;100978.91;20828753;28;20248;-80
2023/08/22 23:24:38;;;;;;;5.00;3.70;;;;;;;17.79;62.37;100977.09;20838784;28;20307;-81
2023/08/22 23:34:41;;;;;;;7.72;4.63;;;;;;;18.06;61.70;100974.59;20842520;28;20239;-81
2023/08/22 23:44:43;;;;;;;7.95;3.53;;;;;;;18.02;61.92;100963.13;20836889;28;20200;-81
2023/08/22 23:54:46;;;;;;;8.00;3.92;;;;;;;17.70;62.72;100970.69;20842425;28;20224;-82
